Time;durP1;ratioP1;P1;durP2;ratioP2;P2;SDS_P1;SDS_P2;PMS_P1;PMS_P2;Temp;Humidity;BMP_temperature;BMP_pressure;BME280_temperature;BME280_humidity;BME280_pressure;Samples;Min_cycle;Max_cycle;Signal;HPM_P1;HPM_P2
2021/08/18 00:00:04;;;;;;;0.57;0.57;;;16.30;99.90;;;;;;5050733;28;20203;-85
2021/08/18 00:02:30;;;;;;;0.30;0.30;;;16.40;99.90;;;;;;5049424;28;20191;-84
2021/08/18 00:04:55;;;;;;;0.43;0.43;;;16.30;99.90;;;;;;5049934;28;20183;-84
2021/08/18 00:07:21;;;;;;;1.03;0.70;;;16.30;99.90;;;;;;5050619;28;20219;-85
2021/08/18 00:09:48;;;;;;;2.67;0.80;;;16.30;99.90;;;;;;5048891;28;20208;-83
2021/08/18 00:12:14;;;;;;;0.30;0.30;;;16.30;99.90;;;;;;5051242;28;20275;-84
2021/08/18 00:14:39;;;;;;;1.43;0.83;;;16.20;99.90;;;;;;5049481;28;20682;-84
2021/08/18 00:17:05;;;;;;;1.30;0.77;;;16.20;99.90;;;;;;5049472;28;20241;-85
2021/08/18 00:19:31;;;;;;;1.17;0.83;;;16.20;99.90;;;;;;5050719;28;20239;-84
2021/08/18 00:21:56;;;;;;;0.87;0.87;;;16.20;99.90;;;;;;5050283;28;20199;-85
2021/08/18 00:24:22;;;;;;;0.70;0.70;;;16.30;99.90;;;;;;5049386;28;20662;-84
2021/08/18 00:26:47;;;;;;;0.57;0.33;;;16.30;99.90;;;;;;5049506;28;20189;-85
2021/08/18 00:29:13;;;;;;;0.80;0.80;;;16.20;99.90;;;;;;5050230;28;20821;-85
2021/08/18 00:31:38;;;;;;;1.03;0.40;;;16.20;99.90;;;;;;5049722;28;20552;-85
2021/08/18 00:34:04;;;;;;;0.37;0.37;;;16.10;99.90;;;;;;5053658;28;20197;-84
2021/08/18 00:36:30;;;;;;;2.97;0.47;;;16.10;99.90;;;;;;5053331;28;20655;-85
2021/08/18 00:38:56;;;;;;;5.13;0.90;;;16.10;99.90;;;;;;5053611;28;20255;-84
2021/08/18 00:41:22;;;;;;;0.60;0.40;;;16.10;99.90;;;;;;5053490;28;20201;-84
2021/08/18 00:43:49;;;;;;;0.33;0.33;;;16.10;99.90;;;;;;5052243;28;20188;-85
2021/08/18 00:46:15;;;;;;;0.20;0.20;;;16.10;99.90;;;;;;5049982;28;20195;-85
2021/08/18 00:48:40;;;;;;;0.50;0.30;;;16.00;99.90;;;;;;5053046;28;20220;-85
2021/08/18 00:51:06;;;;;;;0.30;0.30;;;16.00;99.90;;;;;;5053138;28;20223;-84
2021/08/18 00:53:33;;;;;;;0.77;0.67;;;16.00;99.90;;;;;;5051210;28;20211;-85
2021/08/18 00:55:59;;;;;;;1.50;0.67;;;16.00;99.90;;;;;;5055064;28;20191;-84
2021/08/18 00:58:27;;;;;;;0.40;0.40;;;15.90;99.90;;;;;;5053397;28;20203;-85
2021/08/18 01:00:52;;;;;;;0.30;0.30;;;15.90;99.90;;;;;;5052608;28;20194;-84
2021/08/18 01:03:18;;;;;;;0.27;0.27;;;15.90;99.90;;;;;;5052697;28;20191;-84
2021/08/18 01:05:44;;;;;;;0.73;0.73;;;16.00;99.90;;;;;;5053398;28;20195;-84
2021/08/18 01:08:09;;;;;;;1.07;0.53;;;15.90;99.90;;;;;;5052697;28;20222;-84
2021/08/18 01:10:35;;;;;;;0.17;0.17;;;16.00;99.90;;;;;;5051970;28;20220;-85
2021/08/18 01:13:03;;;;;;;0.37;0.37;;;16.00;99.90;;;;;;5053002;28;20188;-83
2021/08/18 01:15:30;;;;;;;0.53;0.40;;;16.00;99.90;;;;;;5053781;28;20187;-85
2021/08/18 01:17:58;;;;;;;0.20;0.20;;;16.10;99.90;;;;;;5049511;28;20638;-84
2021/08/18 01:20:29;;;;;;;0.20;0.20;;;16.00;99.90;;;;;;5052496;28;20207;-85
2021/08/18 01:22:55;;;;;;;0.90;0.77;;;16.10;99.90;;;;;;5052458;28;20202;-85
2021/08/18 01:25:21;;;;;;;0.30;0.30;;;16.00;99.90;;;;;;5048745;28;20188;-84
2021/08/18 01:27:53;;;;;;;0.20;0.20;;;16.00;99.90;;;;;;5052752;28;20226;-84
2021/08/18 01:30:21;;;;;;;0.40;0.40;;;16.00;99.90;;;;;;5052888;28;20191;-84
2021/08/18 01:32:54;;;;;;;0.10;0.10;;;15.90;99.90;;;;;;5049225;28;20188;-85
2021/08/18 01:35:28;;;;;;;0.40;0.40;;;15.80;99.90;;;;;;5048928;28;20191;-85
2021/08/18 01:37:54;;;;;;;0.13;0.13;;;15.80;99.90;;;;;;5052167;28;20720;-85
2021/08/18 01:40:21;;;;;;;0.10;0.10;;;15.70;99.90;;;;;;5052299;28;20199;-85
2021/08/18 01:42:47;;;;;;;0.50;0.50;;;15.70;99.90;;;;;;5052024;28;20250;-85
2021/08/18 01:45:20;;;;;;;0.17;0.17;;;15.60;99.90;;;;;;5052800;28;20192;-84
2021/08/18 01:47:45;;;;;;;0.10;0.10;;;15.60;99.90;;;;;;5053025;28;20284;-85
2021/08/18 01:50:11;;;;;;;0.20;0.20;;;15.60;99.90;;;;;;5068989;28;20191;-85
2021/08/18 01:52:36;;;;;;;0.30;0.30;;;15.60;99.90;;;;;;5051626;28;20197;-85
2021/08/18 01:55:03;;;;;;;1.80;0.20;;;15.50;99.90;;;;;;5054105;28;20266;-83
2021/08/18 01:57:29;;;;;;;0.83;0.30;;;15.50;99.90;;;;;;5051111;28;20194;-83
2021/08/18 01:59:54;;;;;;;0.30;0.30;;;15.60;99.90;;;;;;5044173;28;20201;-84
2021/08/18 02:02:20;;;;;;;1.13;1.03;;;15.60;99.90;;;;;;5051250;28;20190;-85
2021/08/18 02:04:45;;;;;;;0.50;0.50;;;15.60;99.90;;;;;;5052630;28;20194;-84
2021/08/18 02:07:11;;;;;;;0.13;0.13;;;15.70;99.90;;;;;;5050685;28;20207;-85
2021/08/18 02:09:37;;;;;;;0.10;0.10;;;15.70;99.90;;;;;;5050631;28;20208;-84
2021/08/18 02:12:02;;;;;;;0.30;0.30;;;15.70;99.90;;;;;;5052460;28;20184;-84
2021/08/18 02:14:28;;;;;;;0.97;0.20;;;15.70;99.90;;;;;;5052147;28;20182;-84
2021/08/18 02:16:53;;;;;;;0.10;0.10;;;15.80;99.90;;;;;;5052306;28;20191;-84
2021/08/18 02:19:19;;;;;;;0.20;0.20;;;15.80;99.90;;;;;;5050717;28;20690;-84
2021/08/18 02:21:44;;;;;;;0.30;0.30;;;15.80;99.90;;;;;;5052103;28;20200;-85
2021/08/18 02:24:10;;;;;;;0.30;0.30;;;15.90;99.90;;;;;;5051698;28;20202;-84
2021/08/18 02:26:35;;;;;;;0.20;0.20;;;15.90;99.90;;;;;;5051388;28;20269;-85
2021/08/18 02:29:01;;;;;;;0.10;0.10;;;15.90;99.90;;;;;;5050970;28;20220;-85
2021/08/18 02:31:29;;;;;;;0.10;0.10;;;15.90;99.90;;;;;;5051269;28;20261;-84
2021/08/18 02:33:55;;;;;;;0.83;0.20;;;15.90;99.90;;;;;;5051356;28;20275;-85
2021/08/18 02:36:20;;;;;;;0.30;0.20;;;15.90;99.90;;;;;;5052926;28;20215;-84
2021/08/18 02:38:46;;;;;;;0.37;0.27;;;15.90;99.90;;;;;;5051800;28;20214;-85
2021/08/18 02:41:11;;;;;;;0.10;0.10;;;15.90;99.90;;;;;;5050945;28;20568;-83
2021/08/18 02:43:37;;;;;;;0.30;0.30;;;15.90;99.90;;;;;;5050976;28;20552;-84
2021/08/18 02:46:03;;;;;;;0.20;0.20;;;15.90;99.90;;;;;;5051515;28;20985;-85
2021/08/18 02:48:28;;;;;;;0.60;0.60;;;15.90;99.90;;;;;;5050151;28;20220;-85
2021/08/18 02:50:54;;;;;;;0.10;0.10;;;16.00;99.90;;;;;;5051879;28;20266;-84
2021/08/18 02:53:19;;;;;;;0.20;0.20;;;16.00;99.90;;;;;;5050812;28;21576;-83
2021/08/18 02:55:45;;;;;;;0.23;0.23;;;16.00;99.90;;;;;;5051100;28;20186;-84
2021/08/18 02:58:10;;;;;;;0.10;0.10;;;16.10;99.90;;;;;;5049912;28;20291;-84
2021/08/18 03:00:36;;;;;;;0.30;0.30;;;16.20;99.90;;;;;;5050612;28;20188;-84
2021/08/18 03:03:01;;;;;;;0.10;0.10;;;16.20;99.90;;;;;;5050341;28;20205;-85
2021/08/18 03:05:27;;;;;;;0.20;0.20;;;16.20;99.90;;;;;;5049109;28;20702;-85
2021/08/18 03:07:53;;;;;;;0.30;0.30;;;16.20;99.90;;;;;;5049816;28;20226;-85
2021/08/18 03:10:18;;;;;;;0.20;0.20;;;16.20;99.90;;;;;;5051442;28;20712;-83
2021/08/18 03:12:44;;;;;;;0.00;0.00;;;16.30;99.90;;;;;;5051512;28;20181;-85
2021/08/18 03:15:10;;;;;;;0.20;0.20;;;16.30;99.90;;;;;;5049333;28;20221;-85
2021/08/18 03:17:35;;;;;;;0.20;0.20;;;16.30;99.90;;;;;;5049429;28;20682;-84
2021/08/18 03:20:03;;;;;;;0.20;0.10;;;16.40;99.90;;;;;;5050699;28;20188;-84
2021/08/18 03:22:28;;;;;;;0.50;0.33;;;16.30;99.90;;;;;;5050190;28;20198;-83
2021/08/18 03:24:54;;;;;;;0.20;0.20;;;16.30;99.90;;;;;;5049112;28;20671;-85
2021/08/18 03:27:19;;;;;;;0.50;0.50;;;16.30;99.90;;;;;;5050073;28;20227;-85
2021/08/18 03:29:45;;;;;;;0.40;0.27;;;16.20;99.90;;;;;;5050179;28;20259;-85
2021/08/18 03:32:10;;;;;;;0.23;0.23;;;16.20;99.90;;;;;;5048883;28;20656;-84
2021/08/18 03:34:36;;;;;;;0.37;0.37;;;16.20;99.90;;;;;;5050093;28;20220;-84
2021/08/18 03:37:02;;;;;;;0.27;0.27;;;16.20;99.90;;;;;;5051012;28;20183;-84
2021/08/18 03:39:28;;;;;;;0.10;0.10;;;16.20;99.90;;;;;;5047974;28;20201;-84
2021/08/18 03:41:54;;;;;;;0.20;0.20;;;16.20;99.90;;;;;;5050626;28;20195;-85
2021/08/18 03:44:19;;;;;;;0.10;0.10;;;16.20;99.90;;;;;;5051468;28;20658;-84
2021/08/18 03:46:45;;;;;;;0.17;0.17;;;16.20;99.90;;;;;;5051133;28;20194;-84
2021/08/18 03:49:11;;;;;;;0.10;0.10;;;16.20;99.90;;;;;;5050566;28;20220;-85
2021/08/18 03:51:36;;;;;;;0.20;0.20;;;16.30;99.90;;;;;;5051133;28;20199;-85
2021/08/18 03:54:02;;;;;;;0.10;0.10;;;16.30;99.90;;;;;;5043515;28;20200;-82
2021/08/18 03:56:27;;;;;;;0.40;0.40;;;16.10;99.90;;;;;;5037625;28;20188;-84
2021/08/18 03:58:53;;;;;;;0.13;0.13;;;16.30;99.90;;;;;;5044953;28;20219;-83
2021/08/18 04:01:18;;;;;;;0.17;0.17;;;16.10;99.90;;;;;;5040849;28;20184;-84
2021/08/18 04:03:44;;;;;;;0.20;0.20;;;16.20;99.90;;;;;;5050559;28;20205;-84
2021/08/18 04:06:10;;;;;;;0.10;0.10;;;16.20;99.90;;;;;;5044885;28;20187;-85
2021/08/18 04:08:35;;;;;;;0.47;0.47;;;16.20;99.90;;;;;;5048584;28;20235;-84
2021/08/18 04:11:08;;;;;;;0.20;0.20;;;16.20;99.90;;;;;;5050178;28;20605;-84
2021/08/18 04:13:34;;;;;;;0.30;0.27;;;16.20;99.90;;;;;;5050995;28;20626;-84
2021/08/18 04:16:00;;;;;;;0.10;0.10;;;16.20;99.90;;;;;;5049297;28;20184;-84
2021/08/18 04:18:25;;;;;;;0.20;0.20;;;16.10;99.90;;;;;;5042385;28;20295;-84
2021/08/18 04:20:51;;;;;;;0.33;0.33;;;16.20;99.90;;;;;;5048858;28;20682;-84
2021/08/18 04:23:16;;;;;;;0.30;0.30;;;16.10;99.90;;;;;;5058600;28;20220;-84
2021/08/18 04:25:42;;;;;;;0.10;0.10;;;16.20;99.90;;;;;;5048688;28;20190;-84
2021/08/18 04:28:07;;;;;;;0.20;0.20;;;16.20;99.90;;;;;;5048712;28;20353;-83
2021/08/18 04:30:33;;;;;;;0.10;0.10;;;16.30;99.90;;;;;;5048374;28;20188;-85
2021/08/18 04:32:59;;;;;;;0.27;0.13;;;16.30;99.90;;;;;;5049434;28;20551;-84
2021/08/18 04:35:24;;;;;;;0.20;0.20;;;16.30;99.90;;;;;;5050054;28;20237;-85
2021/08/18 04:37:50;;;;;;;0.10;0.10;;;16.40;99.90;;;;;;5049801;28;20290;-84
2021/08/18 04:40:16;;;;;;;0.10;0.10;;;16.40;99.90;;;;;;5047941;28;20195;-84
2021/08/18 04:42:46;;;;;;;0.10;0.10;;;16.40;99.90;;;;;;5043177;28;20188;-83
2021/08/18 04:45:13;;;;;;;0.20;0.20;;;16.40;99.90;;;;;;5049413;28;20191;-83
2021/08/18 04:47:39;;;;;;;0.10;0.10;;;16.50;99.90;;;;;;5049402;28;20216;-84
2021/08/18 04:50:07;;;;;;;0.10;0.10;;;16.60;99.90;;;;;;5039880;28;20183;-83
2021/08/18 04:52:33;;;;;;;0.10;0.10;;;16.60;99.90;;;;;;5047414;28;20268;-84
2021/08/18 04:54:58;;;;;;;0.10;0.10;;;16.60;99.90;;;;;;5046227;28;20697;-84
2021/08/18 04:57:24;;;;;;;0.20;0.20;;;16.60;99.90;;;;;;5048712;28;20195;-84
2021/08/18 04:59:50;;;;;;;0.20;0.20;;;16.60;99.90;;;;;;5045988;28;20657;-84
2021/08/18 05:02:16;;;;;;;0.20;0.20;;;16.70;99.90;;;;;;5050430;28;20207;-84
2021/08/18 05:04:42;;;;;;;0.53;0.43;;;16.80;99.90;;;;;;5049566;28;20621;-85
2021/08/18 05:07:07;;;;;;;0.30;0.30;;;16.70;99.90;;;;;;5050130;28;20213;-84
2021/08/18 05:09:33;;;;;;;0.27;0.27;;;16.70;99.90;;;;;;5047650;28;20293;-84
2021/08/18 05:11:58;;;;;;;0.50;0.50;;;16.80;99.90;;;;;;5050173;28;20184;-83
2021/08/18 05:14:24;;;;;;;0.20;0.20;;;16.90;99.90;;;;;;5048835;28;20192;-83
2021/08/18 05:16:51;;;;;;;0.20;0.17;;;16.90;99.90;;;;;;5050470;28;20679;-83
2021/08/18 05:19:17;;;;;;;0.10;0.10;;;16.90;99.90;;;;;;5050790;28;20708;-83
2021/08/18 05:21:42;;;;;;;0.10;0.10;;;16.90;99.90;;;;;;5055251;28;20207;-84
2021/08/18 05:24:08;;;;;;;0.10;0.10;;;16.90;99.90;;;;;;5047930;28;20185;-84
2021/08/18 05:26:34;;;;;;;0.20;0.20;;;16.90;99.90;;;;;;5049842;28;20240;-84
2021/08/18 05:29:00;;;;;;;0.13;0.13;;;16.90;99.90;;;;;;5053320;28;20311;-84
2021/08/18 05:31:25;;;;;;;0.30;0.30;;;17.00;99.90;;;;;;5049174;28;20655;-83
2021/08/18 05:33:51;;;;;;;0.40;0.30;;;17.00;99.90;;;;;;5052467;28;20632;-83
2021/08/18 05:36:17;;;;;;;0.20;0.20;;;17.00;99.90;;;;;;5055694;28;20189;-84
2021/08/18 05:38:43;;;;;;;0.20;0.20;;;17.00;99.90;;;;;;5052283;28;20203;-84
2021/08/18 05:41:09;;;;;;;0.10;0.10;;;17.10;99.90;;;;;;5050125;28;20211;-84
2021/08/18 05:43:35;;;;;;;0.10;0.10;;;17.20;99.90;;;;;;5054824;28;20745;-84
2021/08/18 05:46:01;;;;;;;0.10;0.10;;;17.20;99.90;;;;;;5050521;28;20193;-84
2021/08/18 05:48:26;;;;;;;0.23;0.23;;;17.20;99.90;;;;;;5044241;28;20278;-84
2021/08/18 05:50:52;;;;;;;0.30;0.30;;;17.20;99.90;;;;;;5049736;28;20597;-84
2021/08/18 05:53:18;;;;;;;0.37;0.37;;;17.20;99.90;;;;;;5045943;28;20189;-83
2021/08/18 05:55:48;;;;;;;0.10;0.10;;;17.20;99.90;;;;;;5051758;28;20671;-84
2021/08/18 05:58:14;;;;;;;0.10;0.10;;;17.30;99.90;;;;;;5045742;28;20205;-84
2021/08/18 06:00:39;;;;;;;0.10;0.10;;;17.40;99.90;;;;;;5045645;28;20251;-84
2021/08/18 06:03:05;;;;;;;0.10;0.10;;;17.40;99.90;;;;;;5046939;28;20217;-84
2021/08/18 06:05:31;;;;;;;0.10;0.10;;;17.50;99.90;;;;;;5049596;28;20211;-84
2021/08/18 06:07:57;;;;;;;0.33;0.20;;;17.50;99.90;;;;;;5050591;28;20217;-84
2021/08/18 06:10:22;;;;;;;0.20;0.20;;;17.60;99.90;;;;;;5051316;28;20205;-84
2021/08/18 06:12:48;;;;;;;0.10;0.10;;;17.60;99.90;;;;;;5052330;28;20186;-84
2021/08/18 06:15:14;;;;;;;0.13;0.13;;;17.60;99.90;;;;;;5050906;28;20247;-83
2021/08/18 06:17:40;;;;;;;4.23;0.20;;;17.70;99.90;;;;;;5050112;28;20193;-84
2021/08/18 06:20:07;;;;;;;0.10;0.10;;;17.80;99.90;;;;;;5050351;28;20197;-84
2021/08/18 06:22:33;;;;;;;0.20;0.20;;;17.80;99.90;;;;;;5045793;28;20193;-84
2021/08/18 06:25:02;;;;;;;0.20;0.20;;;17.90;99.90;;;;;;5053782;28;20212;-84
2021/08/18 06:27:30;;;;;;;0.93;0.50;;;17.90;99.90;;;;;;5059088;28;20212;-84
2021/08/18 06:29:56;;;;;;;0.23;0.23;;;18.00;99.90;;;;;;5057913;28;20215;-84
2021/08/18 06:32:21;;;;;;;0.10;0.10;;;18.00;99.90;;;;;;5050052;28;20193;-84
2021/08/18 06:34:47;;;;;;;0.17;0.17;;;18.10;99.90;;;;;;5046835;28;20195;-84
2021/08/18 06:37:13;;;;;;;0.10;0.10;;;18.20;99.90;;;;;;5048171;28;20193;-84
2021/08/18 06:39:39;;;;;;;0.10;0.10;;;18.20;99.90;;;;;;5050735;28;20627;-84
2021/08/18 06:42:05;;;;;;;0.20;0.20;;;18.40;99.90;;;;;;5049501;28;20707;-84
2021/08/18 06:44:31;;;;;;;0.10;0.10;;;18.40;99.90;;;;;;5042768;28;20213;-86
2021/08/18 06:46:57;;;;;;;0.20;0.20;;;18.40;99.90;;;;;;5051302;28;20188;-86
2021/08/18 06:49:22;;;;;;;0.20;0.20;;;18.40;99.90;;;;;;5051770;28;20589;-86
2021/08/18 06:51:48;;;;;;;0.10;0.10;;;18.40;99.90;;;;;;5051490;28;20189;-86
2021/08/18 06:54:13;;;;;;;0.20;0.20;;;18.30;99.90;;;;;;5049360;28;20273;-86
2021/08/18 06:56:39;;;;;;;0.20;0.20;;;18.40;99.90;;;;;;5051031;28;20649;-85
2021/08/18 06:59:05;;;;;;;0.10;0.10;;;18.40;99.90;;;;;;5051145;28;20363;-85
2021/08/18 07:01:30;;;;;;;0.10;0.10;;;18.40;99.90;;;;;;5044233;28;20649;-86
2021/08/18 07:03:56;;;;;;;0.13;0.13;;;18.50;99.90;;;;;;5052332;28;20192;-85
2021/08/18 07:06:21;;;;;;;3.30;0.30;;;18.50;99.90;;;;;;5051654;28;20208;-87
2021/08/18 07:08:47;;;;;;;0.10;0.10;;;18.60;99.90;;;;;;5050805;28;20292;-85
2021/08/18 07:11:13;;;;;;;0.10;0.10;;;18.60;99.90;;;;;;5051445;28;20239;-85
2021/08/18 07:13:39;;;;;;;0.20;0.20;;;18.50;99.90;;;;;;5049958;28;20186;-84
2021/08/18 07:16:05;;;;;;;0.83;0.77;;;18.50;99.90;;;;;;5051183;28;20188;-86
2021/08/18 07:18:31;;;;;;;0.20;0.20;;;18.50;99.90;;;;;;5051565;28;20634;-86
2021/08/18 07:20:57;;;;;;;0.20;0.20;;;18.60;99.90;;;;;;5051029;28;20201;-84
2021/08/18 07:23:23;;;;;;;0.10;0.10;;;18.60;99.90;;;;;;5049303;28;20236;-86
2021/08/18 07:25:48;;;;;;;0.10;0.10;;;18.60;99.90;;;;;;5048794;28;20181;-85
2021/08/18 07:28:14;;;;;;;0.10;0.10;;;18.70;99.90;;;;;;5049186;28;20308;-86
2021/08/18 07:30:40;;;;;;;0.10;0.10;;;18.80;99.90;;;;;;5052266;28;20217;-86
2021/08/18 07:33:06;;;;;;;6.03;0.40;;;19.00;99.90;;;;;;5048929;28;20233;-86
2021/08/18 07:35:31;;;;;;;0.30;0.30;;;18.90;99.90;;;;;;5051339;28;20188;-86
2021/08/18 07:37:58;;;;;;;0.20;0.20;;;19.10;99.90;;;;;;5052975;28;20212;-85
2021/08/18 07:40:25;;;;;;;0.27;0.23;;;19.20;99.90;;;;;;5065218;28;20225;-86
2021/08/18 07:42:52;;;;;;;0.50;0.17;;;19.30;99.90;;;;;;5051460;28;20180;-86
2021/08/18 07:45:18;;;;;;;0.20;0.20;;;19.40;99.90;;;;;;5051521;28;20192;-85
2021/08/18 07:47:45;;;;;;;0.30;0.30;;;19.20;99.90;;;;;;5049372;28;20273;-85
2021/08/18 07:50:11;;;;;;;0.10;0.10;;;19.10;99.90;;;;;;5051757;28;20546;-84
2021/08/18 07:52:36;;;;;;;0.20;0.17;;;19.10;99.90;;;;;;5051105;28;20551;-85
2021/08/18 07:55:04;;;;;;;0.10;0.10;;;19.20;99.90;;;;;;5052249;28;20178;-85
2021/08/18 07:57:29;;;;;;;0.13;0.13;;;19.40;99.90;;;;;;5049764;28;20194;-86
2021/08/18 07:59:55;;;;;;;0.30;0.20;;;19.40;99.90;;;;;;5050796;28;20665;-85
2021/08/18 08:02:22;;;;;;;0.17;0.17;;;19.70;99.90;;;;;;5053437;28;20173;-85
2021/08/18 08:04:48;;;;;;;0.10;0.10;;;19.80;99.90;;;;;;5049673;28;20554;-82
2021/08/18 08:07:15;;;;;;;0.27;0.27;;;19.70;99.90;;;;;;5052619;28;20182;-82
2021/08/18 08:09:41;;;;;;;0.20;0.20;;;19.70;99.90;;;;;;5049711;28;20556;-83
2021/08/18 08:12:06;;;;;;;0.10;0.10;;;19.70;99.90;;;;;;5053126;28;20227;-81
2021/08/18 08:14:32;;;;;;;0.10;0.10;;;19.70;99.90;;;;;;5050639;28;20185;-84
2021/08/18 08:16:57;;;;;;;0.10;0.10;;;19.80;99.90;;;;;;5047871;28;20227;-83
2021/08/18 08:19:23;;;;;;;0.23;0.23;;;19.90;99.90;;;;;;5049716;28;20205;-82
2021/08/18 08:21:49;;;;;;;0.17;0.17;;;20.00;99.90;;;;;;5053496;28;20189;-82
2021/08/18 08:24:14;;;;;;;0.20;0.20;;;19.90;99.90;;;;;;5045524;28;20185;-82
2021/08/18 08:26:40;;;;;;;0.73;0.30;;;19.90;99.90;;;;;;5049888;28;20586;-82
2021/08/18 08:29:05;;;;;;;0.30;0.30;;;20.00;99.90;;;;;;5051232;28;20574;-82
2021/08/18 08:31:31;;;;;;;0.13;0.13;;;19.90;99.90;;;;;;5048503;28;20662;-83
2021/08/18 08:33:57;;;;;;;0.13;0.13;;;20.00;99.90;;;;;;5040781;28;20178;-82
2021/08/18 08:36:22;;;;;;;0.20;0.20;;;20.00;99.90;;;;;;5051911;28;20243;-82
2021/08/18 08:38:48;;;;;;;0.27;0.27;;;19.80;99.90;;;;;;5050213;28;20437;-82
2021/08/18 08:41:15;;;;;;;0.10;0.10;;;19.80;99.90;;;;;;5052497;28;20631;-84
2021/08/18 08:43:41;;;;;;;0.43;0.30;;;19.80;99.90;;;;;;5051999;28;20218;-83
2021/08/18 08:46:08;;;;;;;0.20;0.20;;;19.80;99.90;;;;;;5051461;28;20184;-83
2021/08/18 08:48:34;;;;;;;0.13;0.13;;;19.80;99.90;;;;;;5048442;28;20216;-82
2021/08/18 08:51:01;;;;;;;0.10;0.10;;;19.80;99.90;;;;;;5069013;28;20178;-83
2021/08/18 08:53:29;;;;;;;0.20;0.20;;;19.90;99.90;;;;;;5049452;28;20681;-82
2021/08/18 08:55:54;;;;;;;0.10;0.10;;;19.90;99.90;;;;;;5057753;28;20194;-83
2021/08/18 08:58:20;;;;;;;0.83;0.33;;;20.10;99.90;;;;;;5057754;28;20204;-83
2021/08/18 09:00:46;;;;;;;0.20;0.20;;;20.30;99.90;;;;;;5056617;28;20185;-82
2021/08/18 09:03:17;;;;;;;0.47;0.47;;;20.50;99.90;;;;;;5056590;28;20740;-82
2021/08/18 09:05:46;;;;;;;0.10;0.10;;;20.50;99.90;;;;;;5059010;28;20189;-83
2021/08/18 09:08:15;;;;;;;0.70;0.30;;;20.60;99.90;;;;;;5056835;28;20217;-82
2021/08/18 09:11:01;;;;;;;0.20;0.20;;;20.50;99.90;;;;;;5057552;28;20648;-82
2021/08/18 09:13:44;;;;;;;0.20;0.20;;;20.30;99.90;;;;;;5051733;28;20185;-82
2021/08/18 09:16:11;;;;;;;0.10;0.10;;;20.40;99.90;;;;;;5045930;28;20185;-82
2021/08/18 09:18:50;;;;;;;0.20;0.20;;;20.50;99.90;;;;;;5053250;28;20218;-84
2021/08/18 09:21:35;;;;;;;0.20;0.20;;;20.50;99.90;;;;;;5054337;28;20237;-85
2021/08/18 09:24:16;;;;;;;0.10;0.10;;;20.50;99.90;;;;;;5055065;28;20194;-84
2021/08/18 09:26:50;;;;;;;0.20;0.20;;;20.50;99.90;;;;;;5066134;28;20292;-84
2021/08/18 09:29:30;;;;;;;0.20;0.20;;;20.40;99.90;;;;;;5053506;28;20242;-85
2021/08/18 09:31:57;;;;;;;0.10;0.10;;;20.40;99.90;;;;;;5053505;28;20638;-82
2021/08/18 09:34:23;;;;;;;0.20;0.20;;;20.40;99.90;;;;;;5055377;28;20189;-84
2021/08/18 09:36:48;;;;;;;0.10;0.10;;;20.40;99.90;;;;;;5052731;28;20209;-86
2021/08/18 09:39:22;;;;;;;0.40;0.40;;;20.40;99.90;;;;;;5053927;28;20230;-85
2021/08/18 09:41:51;;;;;;;0.20;0.20;;;20.40;99.90;;;;;;5053401;28;20605;-85
2021/08/18 09:44:18;;;;;;;0.10;0.10;;;20.40;99.90;;;;;;5054915;28;20220;-85
2021/08/18 09:46:44;;;;;;;0.27;0.27;;;20.30;99.90;;;;;;5053393;28;20349;-84
2021/08/18 09:49:12;;;;;;;0.20;0.20;;;20.30;99.90;;;;;;5049178;28;20214;-85
2021/08/18 09:51:39;;;;;;;0.27;0.27;;;20.30;99.90;;;;;;5053192;28;20203;-85
2021/08/18 09:54:12;;;;;;;0.20;0.20;;;20.40;99.90;;;;;;5056466;28;20661;-84
2021/08/18 09:56:48;;;;;;;0.10;0.10;;;20.50;99.90;;;;;;5054923;28;20235;-84
2021/08/18 09:59:16;;;;;;;0.30;0.30;;;20.70;99.90;;;;;;5055726;28;20205;-85
2021/08/18 10:01:42;;;;;;;1.07;0.40;;;20.60;99.90;;;;;;5054742;28;20193;-84
2021/08/18 10:04:09;;;;;;;0.20;0.20;;;20.90;99.90;;;;;;5055071;28;20197;-85
2021/08/18 10:06:35;;;;;;;0.13;0.13;;;21.40;99.90;;;;;;5051248;28;20187;-84
2021/08/18 10:09:02;;;;;;;0.20;0.20;;;21.40;99.90;;;;;;5054394;28;20218;-85
2021/08/18 10:11:28;;;;;;;0.27;0.27;;;21.50;99.90;;;;;;5053080;28;20273;-86
2021/08/18 10:13:54;;;;;;;0.20;0.20;;;21.70;99.90;;;;;;5048384;28;20261;-86
2021/08/18 10:16:20;;;;;;;0.30;0.30;;;21.70;99.90;;;;;;5051582;28;20177;-84
2021/08/18 10:18:52;;;;;;;0.20;0.20;;;21.80;99.90;;;;;;5052524;28;20232;-85
2021/08/18 10:21:19;;;;;;;0.20;0.20;;;21.90;99.90;;;;;;5064876;28;20259;-85
2021/08/18 10:23:54;;;;;;;0.20;0.20;;;21.90;99.90;;;;;;5047980;28;20193;-85
2021/08/18 10:26:38;;;;;;;0.20;0.20;;;21.80;99.90;;;;;;5050008;28;20185;-85
2021/08/18 10:29:30;;;;;;;0.10;0.10;;;21.80;99.90;;;;;;5039452;28;20212;-85
2021/08/18 10:32:07;;;;;;;0.10;0.10;;;22.00;99.90;;;;;;5052851;28;20182;-85
2021/08/18 10:34:34;;;;;;;0.20;0.20;;;22.00;99.90;;;;;;5048030;28;20188;-84
2021/08/18 10:37:16;;;;;;;0.20;0.20;;;22.00;99.90;;;;;;5051723;28;20192;-84
2021/08/18 10:39:50;;;;;;;0.10;0.10;;;21.90;99.90;;;;;;5051306;28;20669;-85
2021/08/18 10:42:31;;;;;;;0.97;0.50;;;21.90;99.90;;;;;;5051431;28;20177;-85
2021/08/18 10:44:57;;;;;;;0.20;0.20;;;21.80;99.90;;;;;;5052512;28;20181;-84
2021/08/18 10:47:28;;;;;;;0.20;0.20;;;21.90;99.90;;;;;;5052049;28;20551;-85
2021/08/18 10:50:16;;;;;;;0.13;0.13;;;22.00;99.90;;;;;;5050919;28;20343;-85
2021/08/18 10:52:42;;;;;;;1.03;0.30;;;22.20;99.90;;;;;;5040555;28;20201;-84
2021/08/18 10:55:14;;;;;;;0.10;0.10;;;22.30;99.90;;;;;;5059091;28;20178;-85
2021/08/18 10:57:50;;;;;;;0.20;0.20;;;22.50;99.90;;;;;;5057001;28;20181;-85
2021/08/18 11:00:20;;;;;;;0.10;0.10;;;22.80;99.90;;;;;;5042160;28;20178;-84
2021/08/18 11:02:51;;;;;;;0.20;0.20;;;23.00;99.90;;;;;;5053649;28;20177;-85
2021/08/18 11:05:18;;;;;;;0.27;0.27;;;23.00;99.90;;;;;;5052697;28;20208;-85
2021/08/18 11:08:07;;;;;;;0.10;0.10;;;23.00;99.90;;;;;;5050005;28;20292;-85
2021/08/18 11:10:35;;;;;;;0.30;0.30;;;22.90;99.90;;;;;;5050094;28;20188;-84
2021/08/18 11:13:02;;;;;;;0.20;0.20;;;22.60;99.90;;;;;;5051438;28;20174;-85
2021/08/18 11:15:28;;;;;;;0.20;0.20;;;22.60;99.90;;;;;;5068994;28;20193;-84
2021/08/18 11:17:56;;;;;;;0.77;0.43;;;22.50;99.90;;;;;;5049212;28;20609;-85
2021/08/18 11:20:24;;;;;;;0.30;0.30;;;22.60;99.90;;;;;;5053959;28;20194;-86
2021/08/18 11:22:54;;;;;;;0.30;0.30;;;22.60;99.90;;;;;;5049050;28;20203;-85
2021/08/18 11:25:19;;;;;;;0.30;0.30;;;22.50;99.90;;;;;;5050974;28;20221;-85
2021/08/18 11:27:53;;;;;;;0.20;0.20;;;22.60;99.90;;;;;;5065896;28;20203;-86
2021/08/18 11:30:28;;;;;;;0.33;0.33;;;22.60;99.90;;;;;;5044063;28;20178;-85
2021/08/18 11:32:54;;;;;;;0.20;0.20;;;22.60;99.90;;;;;;5051931;28;20733;-85
2021/08/18 11:35:40;;;;;;;0.20;0.20;;;22.50;99.90;;;;;;5048440;28;20662;-85
2021/08/18 11:38:07;;;;;;;0.20;0.20;;;22.30;99.90;;;;;;5051860;28;20205;-86
2021/08/18 11:40:34;;;;;;;0.33;0.33;;;22.50;99.90;;;;;;5053364;28;20543;-84
2021/08/18 11:43:00;;;;;;;0.30;0.30;;;22.60;99.90;;;;;;5051047;28;20192;-85
2021/08/18 11:45:27;;;;;;;0.47;0.47;;;22.80;99.90;;;;;;5052372;28;20574;-86
2021/08/18 11:48:12;;;;;;;1.10;0.50;;;23.00;99.90;;;;;;5051394;28;20216;-86
2021/08/18 11:50:39;;;;;;;0.40;0.40;;;23.30;99.90;;;;;;5050642;28;20550;-85
2021/08/18 11:53:07;;;;;;;0.23;0.23;;;23.50;99.90;;;;;;5048055;28;20189;-85
2021/08/18 11:55:35;;;;;;;0.23;0.23;;;23.80;99.90;;;;;;5046575;28;20178;-86
2021/08/18 11:58:04;;;;;;;0.20;0.20;;;23.90;99.90;;;;;;5043638;28;20214;-85
2021/08/18 12:00:31;;;;;;;0.30;0.30;;;24.00;99.90;;;;;;5046001;28;20319;-86
2021/08/18 12:02:58;;;;;;;0.20;0.20;;;24.10;99.90;;;;;;5050520;28;21025;-85
2021/08/18 12:05:29;;;;;;;0.10;0.10;;;24.60;99.90;;;;;;5050606;28;20178;-85
2021/08/18 12:08:09;;;;;;;0.30;0.30;;;24.80;99.90;;;;;;5050695;28;20289;-85
2021/08/18 12:10:43;;;;;;;0.20;0.20;;;24.50;99.90;;;;;;5045671;28;20207;-83
2021/08/18 12:13:17;;;;;;;0.20;0.20;;;24.30;99.90;;;;;;5058076;28;20282;-84
2021/08/18 12:15:49;;;;;;;0.20;0.20;;;24.10;99.90;;;;;;5051409;28;20540;-84
2021/08/18 12:18:37;;;;;;;1.13;0.50;;;23.70;99.90;;;;;;5049696;28;20202;-84
2021/08/18 12:21:15;;;;;;;0.20;0.20;;;23.20;99.90;;;;;;5049707;28;20204;-84
2021/08/18 12:23:41;;;;;;;0.50;0.50;;;22.80;99.90;;;;;;5057570;28;20185;-84
2021/08/18 12:26:26;;;;;;;0.10;0.10;;;22.60;99.90;;;;;;5047671;28;20249;-84
2021/08/18 12:28:55;;;;;;;0.30;0.30;;;22.60;99.90;;;;;;5051434;28;20213;-84
2021/08/18 12:31:21;;;;;;;0.10;0.10;;;22.50;99.90;;;;;;5059719;28;20527;-83
2021/08/18 12:34:05;;;;;;;0.40;0.40;;;22.40;99.90;;;;;;5049751;28;20232;-83
2021/08/18 12:36:30;;;;;;;0.30;0.30;;;22.30;99.90;;;;;;5069928;28;20276;-84
2021/08/18 12:38:56;;;;;;;0.20;0.20;;;22.30;99.90;;;;;;5048721;28;20756;-83
2021/08/18 12:41:26;;;;;;;0.57;0.20;;;22.30;99.90;;;;;;5053085;28;20668;-83
2021/08/18 12:44:10;;;;;;;0.47;0.47;;;22.30;99.90;;;;;;5047290;28;20269;-83
2021/08/18 12:46:38;;;;;;;0.33;0.30;;;22.20;99.90;;;;;;5051885;28;20177;-85
2021/08/18 12:49:33;;;;;;;0.43;0.43;;;22.20;99.90;;;;;;5040013;28;20241;-85